createdAt,value
2019-05-22T00:01:00.319Z,9.63
2019-05-22T00:03:35.468Z,9.58
2019-05-22T00:06:06.831Z,9.73
2019-05-22T00:08:38.185Z,9.83
2019-05-22T00:11:10.999Z,10.32
2019-05-22T00:13:44.198Z,9.85
2019-05-22T00:16:14.851Z,10.55
2019-05-22T00:18:47.457Z,9.83
2019-05-22T00:21:20.969Z,9.95
2019-05-22T00:23:54.877Z,10.90
2019-05-22T00:26:25.574Z,10.75
2019-05-22T00:28:56.276Z,11.12
2019-05-22T00:31:27.444Z,11.43
2019-05-22T00:34:00.240Z,10.55
2019-05-22T00:36:31.304Z,11.35
2019-05-22T00:39:03.507Z,11.25
2019-05-22T00:41:35.652Z,11.20
2019-05-22T00:44:08.409Z,12.25
2019-05-22T00:46:41.608Z,11.18
2019-05-22T00:49:13.921Z,11.65
2019-05-22T00:52:07.197Z,11.90
2019-05-22T00:54:44.398Z,11.50
2019-05-22T00:57:40.268Z,12.13
2019-05-22T01:00:24.511Z,12.53
2019-05-22T01:02:57.480Z,13.05
2019-05-22T01:05:30.238Z,12.40
2019-05-22T01:08:02.657Z,12.80
2019-05-22T01:10:33.175Z,12.65
2019-05-22T01:13:04.483Z,12.50
2019-05-22T01:15:35.800Z,11.88
2019-05-22T01:18:11.916Z,11.20
2019-05-22T01:20:42.930Z,11.88
2019-05-22T01:23:18.320Z,11.12
2019-05-22T01:25:49.375Z,12.03
2019-05-22T01:28:22.027Z,10.85
2019-05-22T01:30:55.288Z,11.25
2019-05-22T01:33:32.587Z,10.58
2019-05-22T01:36:21.000Z,12.10
2019-05-22T01:38:53.204Z,10.90
2019-05-22T01:41:27.476Z,12.07
2019-05-22T01:44:02.397Z,12.45
2019-05-22T01:46:36.562Z,12.63
2019-05-22T01:49:13.197Z,11.73
2019-05-22T01:51:46.604Z,12.10
2019-05-22T01:54:17.930Z,12.25
2019-05-22T01:56:48.660Z,11.38
2019-05-22T01:59:20.784Z,11.43
2019-05-22T02:01:52.637Z,11.12
2019-05-22T02:04:24.761Z,11.12
2019-05-22T02:06:57.910Z,10.05
2019-05-22T02:09:37.520Z,10.25
2019-05-22T02:12:28.842Z,10.75
2019-05-22T02:15:00.244Z,10.08
2019-05-22T02:17:35.806Z,9.83
2019-05-22T02:20:09.300Z,8.45
2019-05-22T02:22:42.384Z,10.00
2019-05-22T02:25:34.529Z,9.10
2019-05-22T02:28:06.954Z,8.85
2019-05-22T02:30:39.610Z,9.08
2019-05-22T02:33:10.414Z,9.00
2019-05-22T02:35:42.159Z,9.35
2019-05-22T02:38:13.113Z,8.38
2019-05-22T02:40:47.050Z,7.90
2019-05-22T02:43:18.694Z,7.42
2019-05-22T02:45:49.785Z,8.05
2019-05-22T02:48:23.124Z,7.90
2019-05-22T02:50:57.237Z,7.28
2019-05-22T02:53:29.671Z,6.92
2019-05-22T02:56:00.472Z,7.33
2019-05-22T02:58:33.601Z,7.12
2019-05-22T03:01:06.690Z,6.78
2019-05-22T03:03:38.767Z,7.40
2019-05-22T03:06:13.473Z,7.28
2019-05-22T03:09:31.406Z,6.60
2019-05-22T03:12:16.243Z,7.05
2019-05-22T03:14:48.873Z,7.08
2019-05-22T03:17:31.249Z,7.85
2019-05-22T03:20:09.331Z,7.42
2019-05-22T03:23:14.452Z,7.10
2019-05-22T03:25:45.851Z,6.37
2019-05-22T03:28:17.290Z,6.45
2019-05-22T03:30:48.109Z,7.67
2019-05-22T03:33:19.226Z,7.00
2019-05-22T03:35:53.727Z,6.92
2019-05-22T03:38:25.987Z,7.67
2019-05-22T03:40:57.089Z,7.45
2019-05-22T03:43:30.194Z,7.62
2019-05-22T03:46:06.507Z,8.23
2019-05-22T03:48:39.347Z,8.75
2019-05-22T03:51:14.986Z,8.80
2019-05-22T03:53:47.632Z,8.93
2019-05-22T03:56:22.647Z,8.95
2019-05-22T03:58:53.793Z,9.18
2019-05-22T04:01:26.362Z,9.20
2019-05-22T04:03:59.613Z,9.88
2019-05-22T04:06:30.148Z,9.85
2019-05-22T04:09:11.585Z,10.63
2019-05-22T04:11:46.534Z,13.18
2019-05-22T04:14:17.428Z,13.58
2019-05-22T04:16:48.961Z,14.15
2019-05-22T04:19:19.995Z,15.08
2019-05-22T04:21:50.544Z,15.75
2019-05-22T04:24:22.104Z,15.60
2019-05-22T04:26:53.507Z,16.80
2019-05-22T04:29:28.251Z,16.57
2019-05-22T04:32:06.144Z,15.65
2019-05-22T04:34:38.036Z,15.60
2019-05-22T04:37:10.762Z,14.75
2019-05-22T04:39:44.156Z,14.55
2019-05-22T04:42:16.005Z,14.87
2019-05-22T04:45:12.673Z,14.47
2019-05-22T04:47:57.141Z,13.30
2019-05-22T04:50:29.918Z,10.13
2019-05-22T04:53:02.348Z,12.93
2019-05-22T04:55:34.320Z,11.65
2019-05-22T04:58:08.507Z,12.50
2019-05-22T05:00:39.988Z,12.60
2019-05-22T05:03:11.900Z,13.32
2019-05-22T05:05:46.046Z,13.58
2019-05-22T05:08:17.030Z,13.70
2019-05-22T05:10:50.591Z,12.60
2019-05-22T05:13:21.460Z,13.50
2019-05-22T05:15:52.003Z,13.32
2019-05-22T05:18:22.588Z,14.83
2019-05-22T05:20:53.935Z,14.75
2019-05-22T05:23:24.733Z,15.40
2019-05-22T05:25:55.545Z,17.27
2019-05-22T05:28:26.602Z,16.75
2019-05-22T05:30:58.914Z,15.93
2019-05-22T05:33:33.619Z,14.10
2019-05-22T05:36:05.617Z,16.48
2019-05-22T05:38:39.538Z,16.97
2019-05-22T05:41:11.001Z,17.85
2019-05-22T05:43:42.345Z,21.33
2019-05-22T05:46:13.032Z,21.62
2019-05-22T05:48:45.004Z,22.42
2019-05-22T05:51:40.516Z,21.23
2019-05-22T05:54:16.104Z,21.82
2019-05-22T05:56:51.182Z,23.15
2019-05-22T05:59:24.352Z,23.67
2019-05-22T06:01:56.144Z,23.00
2019-05-22T06:04:39.586Z,22.65
2019-05-22T06:07:24.282Z,21.10
2019-05-22T06:11:00.619Z,20.92
2019-05-22T06:13:32.038Z,19.92
2019-05-22T06:17:07.936Z,20.27
2019-05-22T06:19:43.835Z,19.75
2019-05-22T06:22:17.317Z,18.80
2019-05-22T06:25:10.198Z,18.12
2019-05-22T06:27:55.408Z,17.80
2019-05-22T06:30:46.499Z,17.67
2019-05-22T06:33:45.141Z,17.67
2019-05-22T06:36:18.526Z,17.77
2019-05-22T06:39:11.900Z,17.35
2019-05-22T06:41:44.227Z,17.32
2019-05-22T06:44:42.245Z,16.42
2019-05-22T06:47:25.805Z,15.65
2019-05-22T06:50:00.562Z,16.32
2019-05-22T06:52:31.057Z,16.42
2019-05-22T06:55:02.287Z,15.75
2019-05-22T06:57:34.654Z,16.37
2019-05-22T07:00:18.198Z,16.60
2019-05-22T07:02:48.871Z,16.73
2019-05-22T07:05:19.749Z,18.02
2019-05-22T07:07:50.624Z,16.25
2019-05-22T07:10:21.886Z,17.40
2019-05-22T07:12:52.715Z,16.20
2019-05-22T07:15:38.142Z,16.53
2019-05-22T07:18:12.878Z,16.57
2019-05-22T07:20:43.623Z,15.68
2019-05-22T07:23:20.581Z,15.10
2019-05-22T07:25:52.883Z,15.23
2019-05-22T07:28:25.948Z,14.75
2019-05-22T07:30:57.123Z,16.25
2019-05-22T07:33:28.249Z,14.98
2019-05-22T07:36:09.941Z,14.78
2019-05-22T07:38:32.583Z,13.93
2019-05-22T07:41:03.912Z,14.85
2019-05-22T07:43:34.604Z,13.93
2019-05-22T07:46:05.526Z,13.58
2019-05-22T07:48:36.947Z,14.40
2019-05-22T07:51:08.821Z,13.55
2019-05-22T07:53:40.741Z,13.72
2019-05-22T07:56:12.767Z,13.35
2019-05-22T07:58:44.477Z,12.82
2019-05-22T08:01:17.491Z,13.90
2019-05-22T08:03:49.519Z,14.20
2019-05-22T08:06:21.182Z,14.40
2019-05-22T08:08:54.719Z,13.35
2019-05-22T08:11:27.516Z,13.40
2019-05-22T08:14:00.168Z,13.30
2019-05-22T08:16:31.838Z,13.35
2019-05-22T08:19:03.036Z,13.55
2019-05-22T08:21:34.667Z,13.50
2019-05-22T08:24:07.586Z,13.62
2019-05-22T08:26:53.393Z,13.98
2019-05-22T08:29:11.791Z,13.65
2019-05-22T08:31:42.775Z,12.80
2019-05-22T08:34:15.261Z,13.05
2019-05-22T08:36:49.971Z,12.95
2019-05-22T08:39:21.510Z,12.60
2019-05-22T08:41:53.254Z,13.13
2019-05-22T08:44:24.496Z,14.07
2019-05-22T08:46:55.459Z,12.60
2019-05-22T08:49:26.528Z,13.75
2019-05-22T08:51:57.997Z,13.08
2019-05-22T08:54:30.244Z,12.70
2019-05-22T08:57:02.592Z,13.15
2019-05-22T08:59:34.377Z,11.85
2019-05-22T09:02:06.390Z,12.55
2019-05-22T09:04:37.124Z,11.93
2019-05-22T09:07:08.080Z,10.80
2019-05-22T09:09:38.749Z,10.32
2019-05-22T09:12:11.391Z,11.10
2019-05-22T09:14:41.905Z,11.00
2019-05-22T09:17:12.838Z,10.78
2019-05-22T09:19:43.820Z,10.35
2019-05-22T09:22:14.605Z,10.80
2019-05-22T09:24:47.880Z,10.05
2019-05-22T09:27:19.239Z,9.95
2019-05-22T09:29:50.994Z,9.88
2019-05-22T09:32:21.679Z,9.45
2019-05-22T09:34:52.360Z,9.78
2019-05-22T09:37:23.139Z,9.63
2019-05-22T09:39:53.687Z,8.73
2019-05-22T09:42:24.511Z,9.20
2019-05-22T09:44:55.293Z,10.15
2019-05-22T09:47:27.681Z,9.68
2019-05-22T09:49:58.928Z,9.50
2019-05-22T09:52:29.668Z,9.95
2019-05-22T09:55:00.617Z,9.23
2019-05-22T09:57:31.835Z,10.03
2019-05-22T10:00:02.943Z,9.40
2019-05-22T10:02:35.984Z,10.20
2019-05-22T10:05:08.633Z,9.90
2019-05-22T10:07:57.100Z,10.05
2019-05-22T10:10:15.422Z,10.48
2019-05-22T10:12:45.949Z,11.25
2019-05-22T10:15:18.091Z,10.40
2019-05-22T10:17:50.869Z,10.60
2019-05-22T10:20:22.353Z,10.23
2019-05-22T10:22:53.064Z,10.60
2019-05-22T10:25:25.410Z,11.30
2019-05-22T10:27:59.212Z,10.90
2019-05-22T10:30:28.639Z,10.43
2019-05-22T10:33:00.028Z,10.65
2019-05-22T10:35:31.655Z,10.65
2019-05-22T10:38:02.459Z,10.32
2019-05-22T10:40:34.018Z,9.80
2019-05-22T10:43:04.862Z,10.53
2019-05-22T10:45:35.928Z,10.90
2019-05-22T10:48:06.662Z,10.40
2019-05-22T10:50:39.369Z,10.15
2019-05-22T10:53:10.056Z,10.93
2019-05-22T10:55:41.123Z,10.13
2019-05-22T10:58:13.221Z,10.13
2019-05-22T11:00:44.521Z,10.15
2019-05-22T11:03:18.562Z,10.72
2019-05-22T11:06:05.803Z,9.88
2019-05-22T11:08:22.693Z,9.78
2019-05-22T11:10:53.501Z,9.20
2019-05-22T11:13:25.623Z,9.65
2019-05-22T11:15:58.385Z,9.53
2019-05-22T11:18:29.763Z,8.95
2019-05-22T11:21:00.633Z,9.40
2019-05-22T11:23:48.693Z,8.60
2019-05-22T11:26:05.522Z,9.08
2019-05-22T11:28:36.073Z,8.93
2019-05-22T11:31:08.328Z,9.75
2019-05-22T11:33:39.232Z,9.53
2019-05-22T11:36:10.902Z,9.70
2019-05-22T11:38:41.645Z,8.73
2019-05-22T11:41:12.779Z,9.35
2019-05-22T11:43:44.859Z,9.15
2019-05-22T11:46:17.020Z,8.78
2019-05-22T11:48:47.950Z,8.85
2019-05-22T11:51:20.031Z,8.63
2019-05-22T11:54:07.437Z,8.18
2019-05-22T11:56:23.457Z,7.75
2019-05-22T11:58:54.032Z,7.65
2019-05-22T12:01:25.576Z,7.33
2019-05-22T12:03:58.297Z,7.00
2019-05-22T12:06:31.174Z,7.12
2019-05-22T12:09:01.922Z,7.45
2019-05-22T12:11:33.291Z,7.10
2019-05-22T12:14:03.857Z,7.15
2019-05-22T12:16:34.926Z,7.60
2019-05-22T12:19:07.054Z,7.42
2019-05-22T12:21:38.487Z,7.50
2019-05-22T12:24:26.267Z,7.10
2019-05-22T12:26:42.399Z,6.72
2019-05-22T12:29:16.777Z,6.90
2019-05-22T12:31:45.737Z,6.58
2019-05-22T12:34:16.929Z,6.28
2019-05-22T12:36:51.013Z,5.97
2019-05-22T12:39:21.665Z,6.90
2019-05-22T12:41:54.251Z,6.53
2019-05-22T12:44:25.499Z,6.42
2019-05-22T12:46:56.142Z,6.95
2019-05-22T12:49:28.916Z,6.20
2019-05-22T12:52:00.548Z,6.83
2019-05-22T12:54:45.832Z,6.75
2019-05-22T12:57:06.341Z,7.00
2019-05-22T12:59:36.990Z,7.10
2019-05-22T13:02:10.023Z,6.47
2019-05-22T13:04:41.156Z,6.50
2019-05-22T13:07:12.149Z,6.70
2019-05-22T13:09:43.020Z,7.00
2019-05-22T13:12:14.860Z,6.28
2019-05-22T13:14:46.268Z,6.62
2019-05-22T13:17:17.409Z,6.45
2019-05-22T13:19:49.946Z,6.47
2019-05-22T13:22:26.438Z,6.05
2019-05-22T13:24:59.896Z,6.20
2019-05-22T13:27:33.800Z,6.42
2019-05-22T13:30:05.662Z,7.10
2019-05-22T13:32:37.728Z,6.62
2019-05-22T13:35:10.386Z,6.45
2019-05-22T13:37:41.391Z,6.20
2019-05-22T13:40:26.988Z,6.30
2019-05-22T13:42:46.260Z,6.03
2019-05-22T13:45:28.632Z,6.78
2019-05-22T13:47:51.069Z,6.53
2019-05-22T13:50:27.933Z,6.80
2019-05-22T13:52:58.459Z,6.75
2019-05-22T13:55:29.550Z,6.53
2019-05-22T13:58:02.187Z,6.40
2019-05-22T14:00:32.936Z,6.42
2019-05-22T14:03:04.118Z,7.53
2019-05-22T14:05:36.493Z,6.25
2019-05-22T14:08:08.869Z,6.40
2019-05-22T14:10:40.702Z,6.28
2019-05-22T14:13:12.091Z,6.80
2019-05-22T14:15:50.544Z,6.28
2019-05-22T14:18:15.867Z,6.60
2019-05-22T14:20:46.914Z,6.80
2019-05-22T14:23:18.086Z,6.58
2019-05-22T14:25:50.441Z,6.92
2019-05-22T14:28:22.536Z,6.85
2019-05-22T14:30:53.882Z,7.03
2019-05-22T14:33:28.095Z,7.22
2019-05-22T14:35:58.940Z,6.78
2019-05-22T14:38:29.861Z,6.55
2019-05-22T14:41:02.671Z,7.40
2019-05-22T14:43:33.369Z,7.17
2019-05-22T14:46:06.329Z,6.42
2019-05-22T14:48:37.722Z,6.60
2019-05-22T14:51:09.461Z,7.12
2019-05-22T14:53:41.888Z,7.12
2019-05-22T14:56:13.121Z,7.05
2019-05-22T14:58:44.683Z,7.53
2019-05-22T15:01:15.849Z,7.45
2019-05-22T15:03:47.384Z,6.83
2019-05-22T15:06:19.505Z,8.43
2019-05-22T15:08:50.706Z,8.33
2019-05-22T15:11:23.387Z,7.92
2019-05-22T15:13:55.837Z,7.95
2019-05-22T15:16:28.588Z,8.08
2019-05-22T15:18:59.150Z,7.50
2019-05-22T15:21:30.037Z,7.75
2019-05-22T15:24:01.913Z,7.80
2019-05-22T15:26:32.735Z,7.53
2019-05-22T15:29:03.608Z,7.90
2019-05-22T15:31:34.443Z,7.85
2019-05-22T15:34:06.718Z,7.95
2019-05-22T15:36:39.175Z,8.35
2019-05-22T15:39:14.887Z,8.08
2019-05-22T15:41:46.428Z,7.75
2019-05-22T15:44:17.099Z,8.18
2019-05-22T15:46:49.588Z,7.28
2019-05-22T15:49:21.563Z,7.62
2019-05-22T15:51:53.871Z,7.75
2019-05-22T15:54:26.468Z,7.50
2019-05-22T15:57:01.508Z,7.40
2019-05-22T15:59:35.916Z,8.65
2019-05-22T16:02:06.777Z,8.20
2019-05-22T16:04:41.180Z,8.80
2019-05-22T16:07:15.078Z,8.63
2019-05-22T16:09:47.598Z,8.90
2019-05-22T16:12:19.711Z,7.87
2019-05-22T16:14:52.934Z,8.28
2019-05-22T16:17:24.267Z,8.43
2019-05-22T16:19:55.843Z,7.72
2019-05-22T16:22:27.114Z,7.75
2019-05-22T16:24:57.686Z,7.72
2019-05-22T16:27:29.083Z,8.08
2019-05-22T16:30:01.556Z,8.43
2019-05-22T16:32:36.240Z,8.40
2019-05-22T16:35:07.677Z,8.15
2019-05-22T16:37:38.689Z,8.95
2019-05-22T16:40:12.150Z,8.68
2019-05-22T16:42:43.461Z,9.58
2019-05-22T16:45:14.891Z,9.03
2019-05-22T16:47:46.376Z,8.75
2019-05-22T16:50:18.152Z,9.03
2019-05-22T16:52:50.010Z,8.85
2019-05-22T16:55:22.365Z,8.83
2019-05-22T16:57:54.426Z,7.97
2019-05-22T17:00:26.521Z,7.77
2019-05-22T17:02:58.007Z,8.15
2019-05-22T17:05:29.055Z,8.13
2019-05-22T17:08:00.687Z,7.58
2019-05-22T17:10:31.572Z,7.92
2019-05-22T17:13:03.936Z,7.97
2019-05-22T17:15:37.021Z,7.72
2019-05-22T17:18:11.009Z,7.22
2019-05-22T17:20:42.937Z,8.05
2019-05-22T17:23:14.915Z,7.53
2019-05-22T17:25:46.150Z,7.47
2019-05-22T17:28:18.874Z,7.67
2019-05-22T17:30:50.976Z,7.40
2019-05-22T17:33:22.483Z,6.60
2019-05-22T17:35:54.938Z,6.83
2019-05-22T17:38:28.233Z,7.28
2019-05-22T17:41:00.951Z,8.15
2019-05-22T17:43:33.957Z,7.53
2019-05-22T17:46:06.426Z,7.17
2019-05-22T17:48:37.482Z,6.72
2019-05-22T17:51:08.424Z,6.85
2019-05-22T17:53:39.300Z,6.70
2019-05-22T17:56:09.994Z,7.62
2019-05-22T17:58:40.976Z,7.00
2019-05-22T18:01:12.214Z,7.42
2019-05-22T18:03:43.520Z,6.47
2019-05-22T18:06:15.002Z,7.45
2019-05-22T18:08:46.247Z,6.75
2019-05-22T18:11:16.920Z,6.90
2019-05-22T18:14:03.587Z,6.40
2019-05-22T18:16:35.269Z,6.65
2019-05-22T18:19:07.101Z,7.15
2019-05-22T18:21:38.463Z,7.20
2019-05-22T18:24:09.761Z,6.72
2019-05-22T18:26:41.817Z,6.60
2019-05-22T18:29:12.563Z,6.47
2019-05-22T18:31:44.439Z,6.33
2019-05-22T18:34:15.113Z,6.47
2019-05-22T18:36:45.886Z,6.53
2019-05-22T18:39:18.228Z,6.42
2019-05-22T18:41:49.102Z,6.53
2019-05-22T18:44:19.652Z,5.87
2019-05-22T18:46:50.263Z,6.10
2019-05-22T18:49:20.963Z,6.65
2019-05-22T18:51:51.940Z,6.35
2019-05-22T18:54:22.691Z,6.72
2019-05-22T18:56:53.277Z,5.90
2019-05-22T18:59:25.433Z,6.30
2019-05-22T19:01:57.325Z,6.47
2019-05-22T19:04:28.073Z,5.05
2019-05-22T19:06:58.764Z,6.30
2019-05-22T19:09:29.515Z,6.15
2019-05-22T19:12:00.403Z,5.97
2019-05-22T19:14:31.623Z,6.00
2019-05-22T19:17:02.412Z,5.17
2019-05-22T19:19:33.025Z,6.00
2019-05-22T19:22:05.504Z,5.87
2019-05-22T19:24:37.158Z,5.67
2019-05-22T19:27:07.844Z,5.97
2019-05-22T19:29:38.556Z,5.47
2019-05-22T19:32:09.138Z,5.35
2019-05-22T19:34:40.285Z,5.10
2019-05-22T19:37:11.257Z,5.20
2019-05-22T19:39:41.877Z,4.50
2019-05-22T19:42:12.889Z,5.00
2019-05-22T19:44:43.937Z,5.28
2019-05-22T19:47:15.711Z,4.97
2019-05-22T19:49:46.574Z,4.92
2019-05-22T19:52:22.151Z,4.58
2019-05-22T19:54:51.239Z,5.00
2019-05-22T19:57:22.449Z,4.97
2019-05-22T19:59:53.266Z,4.42
2019-05-22T20:02:25.109Z,4.42
2019-05-22T20:04:56.005Z,4.75
2019-05-22T20:07:27.027Z,5.12
2019-05-22T20:09:57.597Z,4.22
2019-05-22T20:12:28.333Z,4.15
2019-05-22T20:14:59.534Z,4.45
2019-05-22T20:17:30.336Z,4.90
2019-05-22T20:20:00.931Z,4.62
2019-05-22T20:22:31.937Z,4.53
2019-05-22T20:25:04.250Z,4.72
2019-05-22T20:27:35.384Z,4.40
2019-05-22T20:30:08.490Z,4.40
2019-05-22T20:32:39.303Z,4.30
2019-05-22T20:35:12.063Z,4.25
2019-05-22T20:37:45.560Z,4.17
2019-05-22T20:40:18.169Z,4.60
2019-05-22T20:42:49.491Z,4.42
2019-05-22T20:45:22.842Z,4.33
2019-05-22T20:48:14.853Z,4.47
2019-05-22T20:50:46.280Z,4.55
2019-05-22T20:53:19.052Z,4.40
2019-05-22T20:55:50.355Z,4.65
2019-05-22T20:58:22.994Z,4.55
2019-05-22T21:00:54.734Z,4.25
2019-05-22T21:03:26.767Z,4.22
2019-05-22T21:06:01.419Z,4.35
2019-05-22T21:08:32.612Z,4.35
2019-05-22T21:11:04.629Z,4.42
2019-05-22T21:13:35.703Z,4.72
2019-05-22T21:16:08.007Z,4.47
2019-05-22T21:18:43.847Z,5.10
2019-05-22T21:21:15.010Z,4.30
2019-05-22T21:23:45.822Z,4.22
2019-05-22T21:26:37.194Z,3.85
2019-05-22T21:29:08.289Z,4.10
2019-05-22T21:31:39.044Z,4.15
2019-05-22T21:34:09.594Z,4.33
2019-05-22T21:36:40.199Z,4.53
2019-05-22T21:39:13.290Z,4.33
2019-05-22T21:41:43.955Z,4.58
2019-05-22T21:44:14.966Z,3.98
2019-05-22T21:46:45.532Z,3.85
2019-05-22T21:49:19.197Z,4.25
2019-05-22T21:51:50.089Z,4.17
2019-05-22T21:54:21.098Z,3.87
2019-05-22T21:56:52.372Z,4.20
2019-05-22T21:59:23.512Z,4.12
2019-05-22T22:02:03.097Z,4.58
2019-05-22T22:04:36.910Z,4.55
2019-05-22T22:07:08.137Z,4.20
2019-05-22T22:09:42.946Z,3.75
2019-05-22T22:12:17.211Z,4.33
2019-05-22T22:14:49.681Z,3.70
2019-05-22T22:17:21.056Z,3.87
2019-05-22T22:19:52.870Z,4.28
2019-05-22T22:22:29.606Z,4.08
2019-05-22T22:25:00.943Z,3.52
2019-05-22T22:27:33.310Z,3.95
2019-05-22T22:30:05.975Z,3.50
2019-05-22T22:32:37.933Z,3.92
2019-05-22T22:35:12.479Z,4.00
2019-05-22T22:37:43.977Z,4.03
2019-05-22T22:40:17.955Z,3.70
2019-05-22T22:42:51.713Z,3.60
2019-05-22T22:45:34.163Z,3.47
2019-05-22T22:48:06.092Z,3.00
2019-05-22T22:50:38.642Z,4.03
2019-05-22T22:53:10.338Z,3.35
2019-05-22T22:55:43.529Z,3.80
2019-05-22T22:58:17.622Z,3.47
2019-05-22T23:00:49.364Z,3.15
2019-05-22T23:03:26.785Z,3.12
2019-05-22T23:05:58.567Z,3.52
2019-05-22T23:08:34.901Z,3.42
2019-05-22T23:11:07.101Z,3.20
2019-05-22T23:13:38.377Z,3.35
2019-05-22T23:16:09.537Z,3.22
2019-05-22T23:19:26.467Z,3.50
2019-05-22T23:21:56.313Z,2.98
2019-05-22T23:24:28.884Z,2.75
2019-05-22T23:27:00.984Z,2.80
2019-05-22T23:29:32.799Z,2.92
2019-05-22T23:32:04.014Z,3.10
2019-05-22T23:34:35.208Z,3.00
2019-05-22T23:37:07.434Z,3.00
2019-05-22T23:39:40.138Z,2.72
2019-05-22T23:42:17.586Z,3.02
2019-05-22T23:44:49.514Z,2.67
2019-05-22T23:47:20.472Z,2.87
2019-05-22T23:49:51.741Z,2.95
2019-05-22T23:52:23.084Z,2.72
2019-05-22T23:54:53.853Z,2.95
2019-05-22T23:57:26.938Z,3.20
